createdAt,value
2023-05-23T00:01:14.764Z,21.24
2023-05-23T00:03:42.809Z,20.85
2023-05-23T00:06:10.689Z,21.08
2023-05-23T00:08:38.456Z,20.63
2023-05-23T00:11:06.281Z,20.16
2023-05-23T00:13:35.868Z,20.34
2023-05-23T00:16:03.717Z,21.14
2023-05-23T00:18:31.656Z,21.21
2023-05-23T00:21:00.015Z,21.28
2023-05-23T00:23:29.656Z,20.87
2023-05-23T00:25:58.582Z,20.58
2023-05-23T00:28:27.167Z,20.69
2023-05-23T00:30:56.329Z,20.70
2023-05-23T00:33:24.098Z,20.60
2023-05-23T00:35:51.910Z,20.78
2023-05-23T00:38:20.209Z,20.76
2023-05-23T00:40:48.231Z,20.85
2023-05-23T00:43:16.123Z,20.62
2023-05-23T00:45:43.906Z,20.79
2023-05-23T00:48:13.097Z,20.73
2023-05-23T00:50:41.622Z,20.57
2023-05-23T00:53:09.600Z,20.44
2023-05-23T00:55:39.587Z,20.19
2023-05-23T00:58:07.839Z,20.35
2023-05-23T01:00:35.952Z,20.56
2023-05-23T01:03:05.031Z,20.43
2023-05-23T01:05:34.241Z,20.26
2023-05-23T01:08:03.376Z,20.65
2023-05-23T01:10:32.248Z,20.35
2023-05-23T01:13:11.075Z,20.25
2023-05-23T01:15:43.581Z,20.24
2023-05-23T01:18:16.431Z,20.07
2023-05-23T01:20:52.046Z,20.13
2023-05-23T01:24:05.059Z,20.48
2023-05-23T01:26:41.823Z,20.24
2023-05-23T01:29:14.770Z,20.17
2023-05-23T01:31:45.404Z,20.42
2023-05-23T01:34:14.902Z,19.74
2023-05-23T01:36:44.608Z,19.69
2023-05-23T01:39:12.533Z,19.19
2023-05-23T01:41:41.004Z,19.83
2023-05-23T01:44:09.076Z,20.14
2023-05-23T01:46:39.960Z,19.48
2023-05-23T01:49:10.753Z,19.11
2023-05-23T01:51:39.380Z,19.27
2023-05-23T01:54:07.515Z,18.88
2023-05-23T01:56:36.314Z,19.03
2023-05-23T01:59:04.377Z,18.64
2023-05-23T02:01:32.445Z,18.60
2023-05-23T02:04:01.680Z,18.54
2023-05-23T02:06:29.542Z,18.72
2023-05-23T02:08:57.305Z,18.97
2023-05-23T02:11:25.096Z,19.51
2023-05-23T02:13:52.852Z,19.16
2023-05-23T02:16:20.592Z,18.89
2023-05-23T02:18:49.297Z,19.10
2023-05-23T02:21:18.536Z,19.54
2023-05-23T02:23:46.332Z,18.96
2023-05-23T02:26:14.131Z,19.77
2023-05-23T02:28:42.320Z,19.73
2023-05-23T02:31:10.094Z,19.64
2023-05-23T02:33:38.016Z,19.02
2023-05-23T02:36:06.934Z,19.42
2023-05-23T02:38:36.091Z,19.49
2023-05-23T02:41:03.914Z,19.57
2023-05-23T02:43:31.695Z,19.69
2023-05-23T02:45:59.486Z,19.68
2023-05-23T02:48:27.259Z,19.72
2023-05-23T02:50:55.234Z,19.61
2023-05-23T02:53:23.290Z,19.69
2023-05-23T02:55:52.418Z,19.66
2023-05-23T02:58:20.832Z,19.63
2023-05-23T03:00:48.680Z,19.53
2023-05-23T03:03:17.671Z,19.22
2023-05-23T03:05:45.511Z,19.27
2023-05-23T03:08:13.306Z,19.68
2023-05-23T03:10:41.058Z,19.43
2023-05-23T03:13:10.190Z,19.69
2023-05-23T03:15:38.043Z,18.99
2023-05-23T03:18:05.995Z,19.08
2023-05-23T03:20:33.785Z,19.42
2023-05-23T03:23:01.665Z,19.09
2023-05-23T03:25:29.432Z,18.76
2023-05-23T03:27:57.180Z,19.35
2023-05-23T03:30:26.317Z,18.80
2023-05-23T03:32:54.284Z,18.76
2023-05-23T03:35:22.090Z,18.99
2023-05-23T03:37:49.866Z,18.70
2023-05-23T03:40:17.594Z,18.26
2023-05-23T03:42:45.332Z,18.51
2023-05-23T03:45:13.080Z,18.51
2023-05-23T03:47:42.963Z,18.43
2023-05-23T03:50:11.733Z,18.36
2023-05-23T03:52:39.484Z,18.31
2023-05-23T03:55:09.418Z,18.25
2023-05-23T03:57:37.143Z,18.64
2023-05-23T04:00:06.382Z,18.44
2023-05-23T04:02:34.232Z,18.58
2023-05-23T04:05:03.409Z,18.83
2023-05-23T04:07:34.566Z,18.28
2023-05-23T04:10:02.400Z,18.27
2023-05-23T04:12:31.427Z,18.98
2023-05-23T04:14:59.184Z,19.49
2023-05-23T04:17:30.723Z,19.25
2023-05-23T04:19:58.867Z,18.77
2023-05-23T04:22:27.990Z,19.60
2023-05-23T04:24:55.744Z,19.61
2023-05-23T04:27:26.059Z,19.91
2023-05-23T04:29:53.832Z,19.74
2023-05-23T04:32:23.096Z,19.99
2023-05-23T04:34:51.128Z,20.16
2023-05-23T04:37:22.178Z,20.19
2023-05-23T04:39:51.372Z,19.79
2023-05-23T04:42:24.310Z,20.09
2023-05-23T04:44:52.830Z,19.83
2023-05-23T04:47:20.783Z,20.16
2023-05-23T04:49:48.819Z,19.88
2023-05-23T04:52:19.078Z,20.33
2023-05-23T04:54:48.879Z,19.96
2023-05-23T04:57:18.274Z,20.02
2023-05-23T04:59:46.553Z,19.81
2023-05-23T05:02:14.360Z,19.50
2023-05-23T05:04:42.140Z,19.78
2023-05-23T05:07:09.892Z,20.17
2023-05-23T05:09:37.702Z,20.17
2023-05-23T05:12:05.675Z,20.22
2023-05-23T05:14:34.776Z,20.27
2023-05-23T05:17:02.843Z,20.35
2023-05-23T05:19:31.890Z,20.68
2023-05-23T05:22:00.231Z,20.24
2023-05-23T05:24:29.034Z,20.62
2023-05-23T05:26:57.943Z,19.53
2023-05-23T05:29:25.757Z,19.50
2023-05-23T05:31:55.103Z,19.96
2023-05-23T05:34:22.979Z,20.00
2023-05-23T05:36:50.708Z,20.58
2023-05-23T05:39:18.475Z,20.65
2023-05-23T05:41:46.210Z,20.55
2023-05-23T05:44:13.958Z,19.82
2023-05-23T05:46:41.819Z,19.98
2023-05-23T05:49:12.484Z,20.15
2023-05-23T05:51:40.446Z,20.35
2023-05-23T05:54:08.712Z,20.14
2023-05-23T05:56:36.577Z,20.04
2023-05-23T05:59:04.346Z,19.41
2023-05-23T06:01:32.114Z,19.92
2023-05-23T06:04:00.015Z,19.70
2023-05-23T06:06:29.483Z,19.58
2023-05-23T06:08:57.269Z,19.80
2023-05-23T06:11:25.021Z,19.68
2023-05-23T06:13:52.786Z,19.70
2023-05-23T06:16:20.646Z,19.87
2023-05-23T06:18:48.438Z,19.65
2023-05-23T06:21:16.246Z,20.58
2023-05-23T06:23:45.913Z,20.07
2023-05-23T06:26:13.938Z,19.60
2023-05-23T06:28:41.850Z,20.24
2023-05-23T06:31:10.909Z,20.35
2023-05-23T06:33:38.732Z,20.79
2023-05-23T06:36:06.746Z,20.72
2023-05-23T06:38:34.661Z,20.65
2023-05-23T06:41:04.412Z,21.03
2023-05-23T06:43:32.164Z,21.01
2023-05-23T06:45:59.985Z,21.37
2023-05-23T06:48:27.773Z,21.75
2023-05-23T06:50:55.704Z,21.73
2023-05-23T06:53:23.534Z,21.76
2023-05-23T06:55:51.284Z,22.11
2023-05-23T06:58:20.446Z,22.37
2023-05-23T07:00:48.243Z,21.73
2023-05-23T07:03:16.716Z,22.20
2023-05-23T07:05:44.846Z,22.64
2023-05-23T07:08:13.156Z,22.54
2023-05-23T07:10:41.675Z,22.04
2023-05-23T07:13:09.846Z,21.84
2023-05-23T07:15:39.023Z,21.63
2023-05-23T07:18:06.890Z,22.66
2023-05-23T07:20:35.172Z,22.45
2023-05-23T07:23:02.937Z,22.93
2023-05-23T07:25:30.742Z,22.70
2023-05-23T07:27:58.707Z,22.62
2023-05-23T07:30:26.477Z,23.08
2023-05-23T07:32:55.705Z,23.28
2023-05-23T07:35:26.130Z,22.78
2023-05-23T07:37:54.162Z,23.01
2023-05-23T07:40:22.503Z,23.26
2023-05-23T07:42:50.318Z,23.00
2023-05-23T07:45:18.082Z,22.66
2023-05-23T07:47:45.890Z,23.17
2023-05-23T07:50:15.067Z,22.76
2023-05-23T07:52:43.013Z,22.67
2023-05-23T07:55:11.193Z,22.37
2023-05-23T07:57:38.987Z,22.02
2023-05-23T08:00:09.832Z,22.31
2023-05-23T08:02:37.697Z,22.03
2023-05-23T08:05:05.964Z,21.37
2023-05-23T08:07:35.093Z,21.32
2023-05-23T08:10:02.851Z,21.72
2023-05-23T08:12:30.646Z,21.23
2023-05-23T08:14:58.405Z,21.51
2023-05-23T08:17:27.097Z,21.64
2023-05-23T08:19:55.138Z,21.45
2023-05-23T08:22:22.909Z,21.75
2023-05-23T08:24:52.069Z,21.73
2023-05-23T08:27:19.841Z,21.32
2023-05-23T08:29:48.215Z,20.93
2023-05-23T08:32:16.059Z,21.64
2023-05-23T08:34:44.052Z,21.21
2023-05-23T08:37:11.838Z,21.19
2023-05-23T08:39:39.753Z,20.38
2023-05-23T08:42:09.222Z,21.23
2023-05-23T08:44:37.081Z,20.70
2023-05-23T08:47:06.519Z,20.63
2023-05-23T08:49:34.952Z,21.15
2023-05-23T08:52:04.656Z,20.66
2023-05-23T08:54:33.140Z,20.75
2023-05-23T08:57:00.984Z,20.08
2023-05-23T08:59:31.299Z,20.19
2023-05-23T09:01:59.679Z,19.92
2023-05-23T09:04:29.175Z,20.14
2023-05-23T09:06:58.132Z,20.73
2023-05-23T09:09:27.028Z,21.83
2023-05-23T09:11:57.041Z,21.50
2023-05-23T09:14:24.832Z,21.68
2023-05-23T09:16:54.042Z,21.91
2023-05-23T09:19:21.976Z,22.82
2023-05-23T09:21:50.700Z,21.41
2023-05-23T09:24:18.571Z,21.40
2023-05-23T09:26:48.339Z,20.99
2023-05-23T09:29:21.520Z,20.21
2023-05-23T09:31:49.489Z,21.39
2023-05-23T09:34:18.768Z,21.18
2023-05-23T09:36:47.949Z,20.93
2023-05-23T09:39:15.818Z,20.60
2023-05-23T09:41:43.795Z,21.21
2023-05-23T09:44:11.695Z,20.11
2023-05-23T09:46:39.593Z,19.82
2023-05-23T09:49:19.040Z,20.61
2023-05-23T09:51:58.864Z,20.84
2023-05-23T09:54:26.806Z,20.81
2023-05-23T09:56:57.171Z,20.84
2023-05-23T09:59:28.385Z,20.98
2023-05-23T10:01:58.354Z,20.82
2023-05-23T10:04:35.498Z,20.43
2023-05-23T10:07:08.603Z,20.36
2023-05-23T10:09:40.662Z,19.91
2023-05-23T10:12:42.574Z,20.78
2023-05-23T10:15:12.395Z,19.70
2023-05-23T10:17:53.638Z,20.32
2023-05-23T10:20:27.224Z,20.82
2023-05-23T10:22:56.069Z,20.31
2023-05-23T10:25:23.991Z,20.25
2023-05-23T10:27:54.226Z,20.17
2023-05-23T10:30:22.363Z,19.92
2023-05-23T10:32:51.233Z,19.92
2023-05-23T10:35:26.367Z,19.55
2023-05-23T10:38:01.028Z,19.57
2023-05-23T10:40:35.878Z,19.70
2023-05-23T10:43:08.890Z,19.53
2023-05-23T10:45:43.549Z,18.56
2023-05-23T10:48:25.153Z,19.47
2023-05-23T10:51:08.101Z,19.22
2023-05-23T10:53:37.584Z,19.18
2023-05-23T10:56:09.540Z,18.98
2023-05-23T10:58:38.501Z,19.39
2023-05-23T11:01:09.250Z,19.17
2023-05-23T11:03:39.352Z,19.28
2023-05-23T11:06:29.083Z,18.82
2023-05-23T11:09:07.001Z,18.65
2023-05-23T11:11:57.878Z,19.19
2023-05-23T11:14:55.279Z,18.85
2023-05-23T11:17:32.666Z,18.93
2023-05-23T11:20:06.843Z,19.28
2023-05-23T11:22:36.664Z,18.96
2023-05-23T11:25:08.987Z,18.76
2023-05-23T11:27:38.815Z,18.03
2023-05-23T11:30:09.415Z,18.88
2023-05-23T11:32:38.257Z,19.06
2023-05-23T11:35:08.142Z,19.42
2023-05-23T11:37:38.948Z,19.19
2023-05-23T11:40:30.065Z,18.85
2023-05-23T11:42:58.421Z,18.72
2023-05-23T11:45:26.829Z,18.06
2023-05-23T11:47:54.683Z,17.96
2023-05-23T11:50:24.324Z,17.67
2023-05-23T11:52:55.549Z,17.68
2023-05-23T11:55:24.401Z,17.98
2023-05-23T11:57:52.770Z,17.52
2023-05-23T12:00:21.205Z,17.99
2023-05-23T12:02:49.593Z,17.74
2023-05-23T12:05:17.764Z,17.70
2023-05-23T12:07:47.032Z,17.31
2023-05-23T12:10:17.793Z,17.47
2023-05-23T12:12:46.224Z,17.10
2023-05-23T12:15:14.789Z,17.23
2023-05-23T12:17:46.197Z,17.08
2023-05-23T12:20:14.449Z,16.88
2023-05-23T12:22:43.105Z,16.73
2023-05-23T12:25:11.671Z,17.37
2023-05-23T12:27:44.025Z,16.46
2023-05-23T12:30:14.980Z,17.04
2023-05-23T12:32:44.397Z,16.55
2023-05-23T12:35:14.225Z,16.79
2023-05-23T12:37:43.109Z,16.45
2023-05-23T12:40:13.016Z,16.51
2023-05-23T12:42:52.567Z,16.35
2023-05-23T12:45:20.886Z,16.75
2023-05-23T12:47:49.841Z,15.72
2023-05-23T12:50:19.303Z,15.02
2023-05-23T12:52:47.106Z,15.55
2023-05-23T12:55:15.157Z,15.53
2023-05-23T12:57:42.988Z,15.51
2023-05-23T13:00:13.612Z,15.62
2023-05-23T13:02:41.450Z,15.24
2023-05-23T13:05:09.883Z,15.48
2023-05-23T13:07:37.977Z,15.45
2023-05-23T13:10:06.486Z,15.45
2023-05-23T13:12:34.761Z,15.76
2023-05-23T13:15:02.611Z,14.78
2023-05-23T13:17:31.817Z,15.16
2023-05-23T13:19:59.663Z,14.66
2023-05-23T13:22:27.502Z,15.03
2023-05-23T13:24:55.298Z,14.99
2023-05-23T13:27:23.058Z,14.58
2023-05-23T13:29:50.965Z,14.63
2023-05-23T13:32:18.755Z,15.02
2023-05-23T13:34:47.880Z,14.55
2023-05-23T13:37:16.227Z,14.87
2023-05-23T13:39:43.947Z,14.40
2023-05-23T13:42:12.062Z,13.99
2023-05-23T13:44:39.827Z,14.51
2023-05-23T13:47:13.044Z,14.18
2023-05-23T13:49:41.449Z,14.15
2023-05-23T13:52:10.672Z,14.35
2023-05-23T13:54:38.428Z,14.13
2023-05-23T13:57:07.639Z,14.10
2023-05-23T13:59:35.497Z,13.56
2023-05-23T14:02:03.321Z,13.93
2023-05-23T14:04:31.122Z,14.24
2023-05-23T14:06:58.914Z,14.23
2023-05-23T14:09:28.058Z,14.08
2023-05-23T14:11:56.000Z,14.37
2023-05-23T14:14:23.755Z,14.25
2023-05-23T14:16:52.402Z,13.91
2023-05-23T14:19:20.481Z,13.99
2023-05-23T14:21:48.367Z,14.42
2023-05-23T14:24:16.159Z,14.47
2023-05-23T14:26:45.287Z,14.32
2023-05-23T14:29:13.050Z,14.62
2023-05-23T14:31:40.855Z,15.02
2023-05-23T14:34:08.658Z,14.33
2023-05-23T14:36:37.046Z,14.94
2023-05-23T14:39:05.690Z,14.31
2023-05-23T14:41:34.272Z,15.16
2023-05-23T14:44:04.309Z,15.21
2023-05-23T14:46:32.253Z,14.49
2023-05-23T14:49:00.182Z,14.54
2023-05-23T14:51:43.217Z,15.23
2023-05-23T14:54:15.678Z,15.53
2023-05-23T14:56:43.629Z,16.18
2023-05-23T14:59:12.796Z,15.99
2023-05-23T15:01:41.039Z,15.20
2023-05-23T15:04:10.190Z,15.13
2023-05-23T15:06:39.174Z,15.07
2023-05-23T15:09:07.559Z,15.35
2023-05-23T15:11:37.924Z,15.65
2023-05-23T15:14:05.919Z,15.57
2023-05-23T15:16:36.840Z,15.88
2023-05-23T15:19:05.543Z,15.82
2023-05-23T15:21:33.455Z,16.36
2023-05-23T15:24:01.319Z,16.57
2023-05-23T15:26:29.307Z,17.06
2023-05-23T15:28:57.193Z,17.12
2023-05-23T15:31:25.030Z,17.60
2023-05-23T15:33:54.243Z,17.65
2023-05-23T15:36:22.444Z,17.01
2023-05-23T15:38:50.212Z,16.76
2023-05-23T15:41:18.101Z,16.70
2023-05-23T15:43:45.977Z,16.32
2023-05-23T15:46:13.784Z,16.57
2023-05-23T15:48:41.661Z,16.72
2023-05-23T15:51:10.829Z,17.27
2023-05-23T15:53:58.899Z,17.44
2023-05-23T15:56:26.470Z,17.31
2023-05-23T15:58:54.434Z,17.31
2023-05-23T16:01:22.473Z,17.11
2023-05-23T16:03:50.938Z,17.42
2023-05-23T16:06:20.119Z,18.10
2023-05-23T16:08:47.943Z,18.11
2023-05-23T16:11:15.837Z,18.87
2023-05-23T16:13:43.647Z,18.47
2023-05-23T16:16:11.521Z,18.37
2023-05-23T16:18:39.971Z,17.72
2023-05-23T16:21:07.866Z,17.68
2023-05-23T16:23:37.011Z,16.90
2023-05-23T16:26:04.994Z,16.93
2023-05-23T16:28:32.776Z,17.17
2023-05-23T16:31:00.682Z,17.04
2023-05-23T16:33:28.451Z,16.24
2023-05-23T16:35:56.495Z,16.85
2023-05-23T16:38:24.264Z,17.15
2023-05-23T16:40:53.393Z,17.08
2023-05-23T16:43:21.157Z,16.78
2023-05-23T16:45:49.193Z,16.24
2023-05-23T16:48:17.302Z,16.39
2023-05-23T16:50:45.377Z,16.35
2023-05-23T16:53:13.257Z,15.91
2023-05-23T16:55:41.405Z,16.02
2023-05-23T16:58:12.224Z,16.60
2023-05-23T17:00:40.078Z,15.90
2023-05-23T17:03:08.402Z,15.82
2023-05-23T17:05:36.336Z,16.10
2023-05-23T17:08:04.118Z,16.24
2023-05-23T17:10:31.936Z,15.79
2023-05-23T17:12:59.697Z,15.85
2023-05-23T17:15:28.867Z,16.42
2023-05-23T17:17:56.728Z,15.62
2023-05-23T17:20:26.750Z,15.65
2023-05-23T17:22:54.707Z,15.51
2023-05-23T17:25:22.556Z,15.45
2023-05-23T17:27:50.558Z,15.11
2023-05-23T17:30:19.198Z,15.29
2023-05-23T17:32:49.475Z,15.24
2023-05-23T17:35:17.264Z,15.76
2023-05-23T17:37:45.206Z,15.35
2023-05-23T17:40:13.996Z,15.71
2023-05-23T17:42:42.575Z,15.74
2023-05-23T17:45:11.019Z,15.61
2023-05-23T17:47:39.304Z,15.77
2023-05-23T17:50:09.756Z,15.64
2023-05-23T17:52:37.922Z,16.07
2023-05-23T17:55:06.507Z,15.56
2023-05-23T17:57:34.259Z,15.30
2023-05-23T18:00:02.066Z,15.09
2023-05-23T18:02:29.894Z,15.28
2023-05-23T18:04:57.644Z,14.84
2023-05-23T18:07:26.887Z,14.87
2023-05-23T18:09:54.653Z,14.88
2023-05-23T18:12:22.712Z,14.93
2023-05-23T18:14:52.132Z,14.86
2023-05-23T18:17:20.180Z,14.82
2023-05-23T18:19:48.100Z,15.02
2023-05-23T18:22:16.663Z,14.46
2023-05-23T18:24:45.825Z,15.10
2023-05-23T18:27:13.564Z,14.46
2023-05-23T18:29:41.556Z,14.61
2023-05-23T18:32:09.405Z,15.20
2023-05-23T18:34:37.710Z,15.00
2023-05-23T18:37:05.905Z,15.17
2023-05-23T18:39:33.718Z,14.23
2023-05-23T18:42:02.922Z,14.44
2023-05-23T18:44:30.701Z,14.44
2023-05-23T18:46:58.587Z,14.57
2023-05-23T18:49:26.494Z,14.66
2023-05-23T18:51:54.472Z,14.75
2023-05-23T18:54:22.218Z,13.93
2023-05-23T18:56:50.397Z,14.14
2023-05-23T18:59:19.820Z,14.59
2023-05-23T19:01:47.629Z,14.61
2023-05-23T19:04:15.896Z,14.49
2023-05-23T19:06:43.695Z,14.98
2023-05-23T19:09:11.667Z,14.12
2023-05-23T19:11:39.944Z,14.09
2023-05-23T19:14:07.704Z,14.15
2023-05-23T19:16:37.556Z,14.33
2023-05-23T19:19:06.066Z,14.09
2023-05-23T19:21:33.989Z,14.00
2023-05-23T19:24:01.993Z,14.33
2023-05-23T19:26:30.012Z,13.93
2023-05-23T19:28:57.793Z,13.88
2023-05-23T19:31:25.653Z,13.96
2023-05-23T19:33:54.877Z,13.65
2023-05-23T19:36:22.723Z,13.80
2023-05-23T19:38:51.873Z,13.94
2023-05-23T19:41:20.334Z,14.10
2023-05-23T19:43:48.165Z,14.20
2023-05-23T19:46:16.148Z,14.17
2023-05-23T19:48:44.794Z,14.08
2023-05-23T19:51:14.284Z,14.18
2023-05-23T19:53:42.408Z,14.49
2023-05-23T19:56:10.327Z,14.16
2023-05-23T19:58:38.071Z,14.48
2023-05-23T20:01:06.077Z,14.32
2023-05-23T20:03:34.322Z,14.23
2023-05-23T20:06:02.295Z,14.32
2023-05-23T20:08:31.445Z,14.19
2023-05-23T20:10:59.517Z,14.28
2023-05-23T20:13:28.044Z,14.00
2023-05-23T20:15:56.300Z,13.95
2023-05-23T20:18:24.264Z,13.72
2023-05-23T20:20:52.069Z,13.74
2023-05-23T20:23:19.872Z,13.94
2023-05-23T20:25:49.060Z,14.32
2023-05-23T20:28:17.978Z,13.80
2023-05-23T20:30:46.590Z,14.35
2023-05-23T20:33:15.819Z,14.37
2023-05-23T20:35:44.123Z,13.82
2023-05-23T20:38:12.094Z,13.90
2023-05-23T20:40:40.136Z,13.78
2023-05-23T20:43:10.422Z,14.09
2023-05-23T20:45:38.225Z,14.37
2023-05-23T20:48:06.219Z,14.32
2023-05-23T20:50:35.514Z,14.41
2023-05-23T20:53:03.634Z,14.19
2023-05-23T20:55:34.899Z,13.70
2023-05-23T20:58:02.764Z,14.16
2023-05-23T21:00:31.922Z,13.98
2023-05-23T21:02:59.811Z,14.33
2023-05-23T21:05:27.762Z,14.00
2023-05-23T21:07:55.526Z,13.85
2023-05-23T21:10:23.308Z,14.40
2023-05-23T21:12:51.667Z,14.51
2023-05-23T21:15:20.055Z,14.07
2023-05-23T21:17:50.729Z,14.05
2023-05-23T21:20:20.683Z,13.90
2023-05-23T21:22:48.793Z,13.96
2023-05-23T21:25:16.929Z,14.37
2023-05-23T21:27:44.752Z,14.06
2023-05-23T21:30:14.943Z,13.51
2023-05-23T21:32:43.539Z,13.95
2023-05-23T21:35:12.750Z,13.92
2023-05-23T21:37:40.611Z,13.36
2023-05-23T21:40:09.719Z,13.60
2023-05-23T21:42:37.522Z,13.73
2023-05-23T21:45:06.138Z,14.02
2023-05-23T21:47:34.034Z,14.16
2023-05-23T21:50:04.067Z,13.70
2023-05-23T21:52:33.240Z,14.32
2023-05-23T21:55:01.011Z,14.23
2023-05-23T21:57:28.848Z,13.96
2023-05-23T21:59:56.769Z,13.80
2023-05-23T22:02:24.602Z,14.15
2023-05-23T22:04:52.434Z,13.85
2023-05-23T22:07:25.119Z,14.30
2023-05-23T22:09:56.183Z,14.34
2023-05-23T22:12:24.005Z,14.49
2023-05-23T22:14:51.783Z,14.18
2023-05-23T22:17:22.389Z,14.17
2023-05-23T22:19:51.943Z,14.35
2023-05-23T22:22:19.936Z,14.64
2023-05-23T22:24:47.694Z,13.98
2023-05-23T22:27:16.823Z,14.32
2023-05-23T22:29:45.042Z,14.27
2023-05-23T22:32:12.862Z,14.13
2023-05-23T22:34:40.636Z,14.02
2023-05-23T22:37:08.394Z,14.37
2023-05-23T22:39:36.193Z,14.46
2023-05-23T22:42:04.347Z,14.12
2023-05-23T22:44:33.490Z,14.34
2023-05-23T22:47:03.669Z,14.02
2023-05-23T22:49:32.023Z,13.88
2023-05-23T22:52:00.581Z,14.66
2023-05-23T22:54:28.468Z,14.48
2023-05-23T22:56:56.230Z,14.62
2023-05-23T22:59:24.000Z,14.09
2023-05-23T23:01:53.137Z,14.54
2023-05-23T23:04:23.682Z,14.22
2023-05-23T23:06:53.725Z,14.61
2023-05-23T23:09:21.704Z,14.50
2023-05-23T23:11:49.459Z,14.70
2023-05-23T23:14:17.218Z,14.62
2023-05-23T23:16:46.310Z,14.53
2023-05-23T23:19:15.545Z,14.40
2023-05-23T23:21:43.388Z,13.70
2023-05-23T23:24:11.548Z,13.95
2023-05-23T23:26:39.535Z,14.10
2023-05-23T23:29:07.703Z,14.27
2023-05-23T23:31:35.700Z,13.89
2023-05-23T23:34:03.510Z,14.30
2023-05-23T23:36:32.617Z,14.32
2023-05-23T23:39:00.452Z,14.09
2023-05-23T23:41:28.261Z,14.20
2023-05-23T23:43:56.028Z,14.10
2023-05-23T23:46:23.845Z,13.67
2023-05-23T23:48:51.680Z,13.63
2023-05-23T23:51:19.520Z,13.75
2023-05-23T23:53:50.912Z,13.83
2023-05-23T23:56:22.204Z,13.59
2023-05-23T23:58:49.951Z,13.62
